createdAt,value
2023-02-23T00:01:52.120Z,106.95
2023-02-23T00:06:46.533Z,102.82
2023-02-23T00:11:39.668Z,105.18
2023-02-23T00:16:33.552Z,112.38
2023-02-23T00:21:51.928Z,114.55
2023-02-23T00:26:46.285Z,107.75
2023-02-23T00:31:40.263Z,105.82
2023-02-23T00:36:34.577Z,93.63
2023-02-23T00:41:29.283Z,112.00
2023-02-23T00:46:23.801Z,112.90
2023-02-23T00:51:18.476Z,110.78
2023-02-23T00:56:14.476Z,97.75
2023-02-23T01:01:12.457Z,107.78
2023-02-23T01:06:08.377Z,110.77
2023-02-23T01:11:06.613Z,108.22
2023-02-23T01:15:59.513Z,110.72
2023-02-23T01:20:52.600Z,111.78
2023-02-23T01:25:45.958Z,112.82
2023-02-23T01:30:40.065Z,104.72
2023-02-23T01:35:34.475Z,102.40
2023-02-23T01:40:30.354Z,96.65
2023-02-23T01:45:31.174Z,95.78
2023-02-23T01:50:27.103Z,97.38
2023-02-23T01:55:24.664Z,108.47
2023-02-23T02:00:20.753Z,111.03
2023-02-23T02:05:14.683Z,119.28
2023-02-23T02:10:11.791Z,119.00
2023-02-23T02:15:17.699Z,98.75
2023-02-23T02:20:44.698Z,108.78
2023-02-23T02:25:55.732Z,104.55
2023-02-23T02:31:07.143Z,112.85
2023-02-23T02:36:05.241Z,114.28
2023-02-23T02:41:14.642Z,107.13
2023-02-23T02:46:22.147Z,108.20
2023-02-23T02:51:35.606Z,123.80
2023-02-23T02:56:30.044Z,102.28
2023-02-23T03:01:42.041Z,112.50
2023-02-23T03:06:56.629Z,109.90
2023-02-23T03:12:39.723Z,104.13
2023-02-23T03:18:08.380Z,100.78
2023-02-23T03:23:33.936Z,107.85
2023-02-23T03:28:51.436Z,103.57
2023-02-23T03:34:41.533Z,108.38
2023-02-23T03:39:56.839Z,106.47
2023-02-23T03:45:10.027Z,99.18
2023-02-23T03:50:24.788Z,99.28
2023-02-23T03:55:44.785Z,99.65
2023-02-23T04:01:04.427Z,102.25
2023-02-23T04:06:17.144Z,93.25
2023-02-23T04:11:58.908Z,90.65
2023-02-23T04:16:53.269Z,106.43
2023-02-23T04:21:46.623Z,82.55
2023-02-23T04:26:40.336Z,83.40
2023-02-23T04:31:32.806Z,85.95
2023-02-23T04:36:27.316Z,82.88
2023-02-23T04:41:21.149Z,94.93
2023-02-23T04:46:15.120Z,91.13
2023-02-23T04:51:08.615Z,82.50
2023-02-23T04:56:02.128Z,87.45
2023-02-23T05:00:55.430Z,83.15
2023-02-23T05:05:48.696Z,86.25
2023-02-23T05:10:42.793Z,83.95
2023-02-23T05:15:37.195Z,85.20
2023-02-23T05:20:30.855Z,77.63
2023-02-23T05:25:24.308Z,84.07
2023-02-23T05:30:17.620Z,80.60
2023-02-23T05:35:11.242Z,79.80
2023-02-23T05:40:07.027Z,83.55
2023-02-23T05:45:01.966Z,86.28
2023-02-23T05:49:54.607Z,84.40
2023-02-23T05:54:48.103Z,88.43
2023-02-23T05:59:41.388Z,81.13
2023-02-23T06:04:34.747Z,87.43
2023-02-23T06:09:28.976Z,87.18
2023-02-23T06:14:21.892Z,91.03
2023-02-23T06:19:15.064Z,87.57
2023-02-23T06:24:09.129Z,88.35
2023-02-23T06:29:03.469Z,80.32
2023-02-23T06:33:56.946Z,95.22
2023-02-23T06:38:52.067Z,102.20
2023-02-23T06:43:46.408Z,98.45
2023-02-23T06:48:40.369Z,92.82
2023-02-23T06:53:33.856Z,94.47
2023-02-23T06:58:26.938Z,92.75
2023-02-23T07:03:19.570Z,86.95
2023-02-23T07:08:12.874Z,95.18
2023-02-23T07:13:06.162Z,87.72
2023-02-23T07:18:00.112Z,91.82
2023-02-23T07:22:53.330Z,92.00
2023-02-23T07:27:47.086Z,99.35
2023-02-23T07:32:40.353Z,187.82
2023-02-23T07:37:33.677Z,315.88
2023-02-23T07:42:27.924Z,90.00
2023-02-23T07:47:23.003Z,82.70
2023-02-23T07:52:18.836Z,90.97
2023-02-23T07:57:12.496Z,92.45
2023-02-23T08:02:05.572Z,99.13
2023-02-23T08:06:59.155Z,94.32
2023-02-23T08:11:52.236Z,131.45
2023-02-23T08:16:46.698Z,102.38
2023-02-23T08:21:39.705Z,106.25
2023-02-23T08:26:33.041Z,91.72
2023-02-23T08:31:28.341Z,90.47
2023-02-23T08:36:21.170Z,97.70
2023-02-23T08:41:13.839Z,94.07
2023-02-23T08:46:09.554Z,90.93
2023-02-23T08:51:03.690Z,93.45
2023-02-23T08:56:16.742Z,91.07
2023-02-23T09:01:15.153Z,87.60
2023-02-23T09:06:12.244Z,136.77
2023-02-23T09:11:07.107Z,102.68
2023-02-23T09:15:59.868Z,95.97
2023-02-23T09:20:53.736Z,101.18
2023-02-23T09:25:47.748Z,102.93
2023-02-23T09:30:41.740Z,97.43
2023-02-23T09:35:36.317Z,96.75
2023-02-23T09:40:33.781Z,97.15
2023-02-23T09:45:30.731Z,104.07
2023-02-23T09:50:26.079Z,104.03
2023-02-23T09:55:19.446Z,101.32
2023-02-23T10:00:27.831Z,93.10
2023-02-23T10:05:23.140Z,95.17
2023-02-23T10:10:19.450Z,90.40
2023-02-23T10:15:41.896Z,89.90
2023-02-23T10:20:53.540Z,100.88
2023-02-23T10:25:49.229Z,74.40
2023-02-23T10:30:42.900Z,83.80
2023-02-23T10:35:37.149Z,82.60
2023-02-23T10:40:33.653Z,87.38
2023-02-23T10:45:27.724Z,58.53
2023-02-23T10:50:22.680Z,53.22
2023-02-23T10:55:30.916Z,53.38
2023-02-23T11:00:33.338Z,52.57
2023-02-23T11:05:35.053Z,41.45
2023-02-23T11:10:29.240Z,42.08
2023-02-23T11:15:35.187Z,39.88
2023-02-23T11:20:40.550Z,42.33
2023-02-23T11:25:33.929Z,41.00
2023-02-23T11:30:47.513Z,44.58
2023-02-23T11:35:41.510Z,40.72
2023-02-23T11:40:35.457Z,37.75
2023-02-23T11:45:48.686Z,37.25
2023-02-23T11:51:01.570Z,53.55
2023-02-23T11:55:55.830Z,45.50
2023-02-23T12:01:03.064Z,40.70
2023-02-23T12:05:57.783Z,57.22
2023-02-23T12:10:54.520Z,40.45
2023-02-23T12:16:02.970Z,52.42
2023-02-23T12:20:56.984Z,62.77
2023-02-23T12:25:59.478Z,50.10
2023-02-23T12:30:57.998Z,52.22
2023-02-23T12:36:20.128Z,49.53
2023-02-23T12:41:16.986Z,46.55
2023-02-23T12:46:16.408Z,51.42
2023-02-23T12:51:25.230Z,54.40
2023-02-23T12:56:35.662Z,53.05
2023-02-23T13:01:42.140Z,55.40
2023-02-23T13:06:46.635Z,57.28
2023-02-23T13:11:54.012Z,59.65
2023-02-23T13:16:58.140Z,54.17
2023-02-23T13:22:33.175Z,60.47
2023-02-23T13:27:39.439Z,56.38
2023-02-23T13:32:34.489Z,60.30
2023-02-23T13:37:41.015Z,54.08
2023-02-23T13:42:52.391Z,54.22
2023-02-23T13:47:55.901Z,53.58
2023-02-23T13:52:49.866Z,52.38
2023-02-23T13:57:46.277Z,52.72
2023-02-23T14:02:43.642Z,53.28
2023-02-23T14:07:40.143Z,46.72
2023-02-23T14:12:32.832Z,48.70
2023-02-23T14:17:57.266Z,52.42
2023-02-23T14:23:19.298Z,48.15
2023-02-23T14:28:35.941Z,57.47
2023-02-23T14:33:51.452Z,50.03
2023-02-23T14:38:48.236Z,54.90
2023-02-23T14:43:45.423Z,52.70
2023-02-23T14:48:41.897Z,53.65
2023-02-23T14:53:34.906Z,52.50
2023-02-23T14:58:33.607Z,56.00
2023-02-23T15:03:27.860Z,51.55
2023-02-23T15:08:24.729Z,51.08
2023-02-23T15:13:39.163Z,60.53
2023-02-23T15:18:36.885Z,52.67
2023-02-23T15:23:38.031Z,55.03
2023-02-23T15:28:34.327Z,51.90
2023-02-23T15:33:30.468Z,53.97
2023-02-23T15:38:43.869Z,57.67
2023-02-23T15:43:37.628Z,55.58
2023-02-23T15:48:51.357Z,55.70
2023-02-23T15:53:44.568Z,50.47
2023-02-23T15:58:56.024Z,47.67
2023-02-23T16:04:18.470Z,52.95
2023-02-23T16:09:24.191Z,49.67
2023-02-23T16:14:18.835Z,51.80
2023-02-23T16:19:13.748Z,55.38
2023-02-23T16:24:15.431Z,50.10
2023-02-23T16:29:08.938Z,57.67
2023-02-23T16:34:04.183Z,51.42
2023-02-23T16:38:59.547Z,53.40
2023-02-23T16:43:55.246Z,61.47
2023-02-23T16:48:48.409Z,57.38
2023-02-23T16:53:41.618Z,57.40
2023-02-23T16:58:36.565Z,67.65
2023-02-23T17:03:32.654Z,73.20
2023-02-23T17:08:28.631Z,65.85
2023-02-23T17:13:23.914Z,62.10
2023-02-23T17:18:21.614Z,56.30
2023-02-23T17:23:15.769Z,59.75
2023-02-23T17:28:08.933Z,55.22
2023-02-23T17:33:02.752Z,62.40
2023-02-23T17:37:56.277Z,73.85
2023-02-23T17:42:50.628Z,63.70
2023-02-23T17:47:44.124Z,67.10
2023-02-23T17:52:38.073Z,71.40
2023-02-23T17:57:31.225Z,74.55
2023-02-23T18:02:24.802Z,85.20
2023-02-23T18:07:19.573Z,99.07
2023-02-23T18:12:12.689Z,67.85
2023-02-23T18:17:05.422Z,72.40
2023-02-23T18:21:59.035Z,68.63
2023-02-23T18:26:52.301Z,71.32
2023-02-23T18:31:46.521Z,86.65
2023-02-23T18:36:40.048Z,74.97
2023-02-23T18:41:34.496Z,64.88
2023-02-23T18:46:28.304Z,73.80
2023-02-23T18:51:22.695Z,80.72
2023-02-23T18:56:23.806Z,81.70
2023-02-23T19:01:20.906Z,75.88
2023-02-23T19:06:16.250Z,76.15
2023-02-23T19:11:10.586Z,81.93
2023-02-23T19:16:08.638Z,69.15
2023-02-23T19:21:01.766Z,69.65
2023-02-23T19:25:54.822Z,80.55
2023-02-23T19:30:50.200Z,73.03
2023-02-23T19:35:44.614Z,68.50
2023-02-23T19:40:43.802Z,69.63
2023-02-23T19:45:37.525Z,62.80
2023-02-23T19:50:32.486Z,70.68
2023-02-23T19:55:25.959Z,66.40
2023-02-23T20:00:22.126Z,70.50
2023-02-23T20:05:17.231Z,71.70
2023-02-23T20:10:17.160Z,81.43
2023-02-23T20:15:11.554Z,89.65
2023-02-23T20:20:06.875Z,118.78
2023-02-23T20:24:59.798Z,110.05
2023-02-23T20:29:55.107Z,101.90
2023-02-23T20:34:49.395Z,92.32
2023-02-23T20:39:42.279Z,85.53
2023-02-23T20:44:35.232Z,92.63
2023-02-23T20:49:29.880Z,98.30
2023-02-23T20:54:22.741Z,90.72
2023-02-23T20:59:16.745Z,100.70
2023-02-23T21:04:10.400Z,90.38
2023-02-23T21:09:05.331Z,84.95
2023-02-23T21:13:58.546Z,92.90
2023-02-23T21:19:04.831Z,91.93
2023-02-23T21:23:58.865Z,92.05
2023-02-23T21:28:52.745Z,100.78
2023-02-23T21:33:46.095Z,90.28
2023-02-23T21:38:40.711Z,92.57
2023-02-23T21:43:36.120Z,95.65
2023-02-23T21:48:30.075Z,78.57
2023-02-23T21:53:23.113Z,81.18
2023-02-23T21:58:16.750Z,88.50
2023-02-23T22:03:10.557Z,88.07
2023-02-23T22:08:04.758Z,78.20
2023-02-23T22:12:58.034Z,86.65
2023-02-23T22:17:52.678Z,79.97
2023-02-23T22:22:46.091Z,86.35
2023-02-23T22:27:42.134Z,93.35
2023-02-23T22:32:35.128Z,89.57
2023-02-23T22:37:32.550Z,86.70
2023-02-23T22:42:29.573Z,85.97
2023-02-23T22:47:22.602Z,88.50
2023-02-23T22:52:15.302Z,82.97
2023-02-23T22:57:09.337Z,81.07
2023-02-23T23:02:02.791Z,78.13
2023-02-23T23:06:55.447Z,79.20
2023-02-23T23:11:51.177Z,79.78
2023-02-23T23:16:48.100Z,79.22
2023-02-23T23:21:43.336Z,77.25
2023-02-23T23:26:39.981Z,75.07
2023-02-23T23:31:35.537Z,85.25
2023-02-23T23:36:32.997Z,86.82
2023-02-23T23:41:27.625Z,81.82
2023-02-23T23:46:24.135Z,87.85
2023-02-23T23:51:18.231Z,87.47
2023-02-23T23:56:12.040Z,85.68
